sensor_id;sensor_type;location;lat;lon;timestamp;P1;durP1;ratioP1;P2;durP2;ratioP2
10096;SDS011;5087;42.662;23.466;2023-07-20T00:00:34;0.70;;;0.70;;
10096;SDS011;5087;42.662;23.466;2023-07-20T00:03:12;0.80;;;0.80;;
10096;SDS011;5087;42.662;23.466;2023-07-20T00:05:44;0.80;;;0.80;;
10096;SDS011;5087;42.662;23.466;2023-07-20T00:08:13;0.77;;;0.77;;
10096;SDS011;5087;42.662;23.466;2023-07-20T00:10:41;0.90;;;0.90;;
10096;SDS011;5087;42.662;23.466;2023-07-20T00:13:08;1.10;;;1.10;;
10096;SDS011;5087;42.662;23.466;2023-07-20T00:15:36;1.20;;;1.20;;
10096;SDS011;5087;42.662;23.466;2023-07-20T00:18:04;1.10;;;1.10;;
10096;SDS011;5087;42.662;23.466;2023-07-20T00:20:31;1.00;;;1.00;;
10096;SDS011;5087;42.662;23.466;2023-07-20T00:22:59;0.83;;;0.83;;
10096;SDS011;5087;42.662;23.466;2023-07-20T00:25:27;1.00;;;1.00;;
10096;SDS011;5087;42.662;23.466;2023-07-20T00:27:55;0.90;;;0.90;;
10096;SDS011;5087;42.662;23.466;2023-07-20T00:30:22;0.60;;;0.60;;
10096;SDS011;5087;42.662;23.466;2023-07-20T00:32:49;0.80;;;0.80;;
10096;SDS011;5087;42.662;23.466;2023-07-20T00:35:17;0.50;;;0.50;;
10096;SDS011;5087;42.662;23.466;2023-07-20T00:37:45;0.30;;;0.30;;
10096;SDS011;5087;42.662;23.466;2023-07-20T00:40:12;0.20;;;0.20;;
10096;SDS011;5087;42.662;23.466;2023-07-20T00:42:41;0.20;;;0.20;;
10096;SDS011;5087;42.662;23.466;2023-07-20T00:45:08;0.20;;;0.20;;
10096;SDS011;5087;42.662;23.466;2023-07-20T00:47:35;0.30;;;0.30;;
10096;SDS011;5087;42.662;23.466;2023-07-20T00:50:03;0.10;;;0.10;;
10096;SDS011;5087;42.662;23.466;2023-07-20T00:52:32;0.10;;;0.10;;
10096;SDS011;5087;42.662;23.466;2023-07-20T00:55:00;0.10;;;0.10;;
10096;SDS011;5087;42.662;23.466;2023-07-20T00:57:29;0.10;;;0.10;;
10096;SDS011;5087;42.662;23.466;2023-07-20T00:59:59;6.93;;;0.53;;
10096;SDS011;5087;42.662;23.466;2023-07-20T01:02:30;0.00;;;0.00;;
10096;SDS011;5087;42.662;23.466;2023-07-20T01:04:58;0.10;;;0.10;;
10096;SDS011;5087;42.662;23.466;2023-07-20T01:07:27;0.00;;;0.00;;
10096;SDS011;5087;42.662;23.466;2023-07-20T01:10:01;0.00;;;0.00;;
10096;SDS011;5087;42.662;23.466;2023-07-20T01:12:33;0.10;;;0.10;;
10096;SDS011;5087;42.662;23.466;2023-07-20T01:15:09;0.10;;;0.10;;
10096;SDS011;5087;42.662;23.466;2023-07-20T01:17:37;0.10;;;0.10;;
10096;SDS011;5087;42.662;23.466;2023-07-20T01:20:05;0.10;;;0.10;;
10096;SDS011;5087;42.662;23.466;2023-07-20T01:22:41;0.10;;;0.10;;
10096;SDS011;5087;42.662;23.466;2023-07-20T01:25:44;0.10;;;0.10;;
10096;SDS011;5087;42.662;23.466;2023-07-20T01:28:39;0.20;;;0.20;;
10096;SDS011;5087;42.662;23.466;2023-07-20T01:31:25;0.20;;;0.20;;
10096;SDS011;5087;42.662;23.466;2023-07-20T01:33:55;0.20;;;0.20;;
10096;SDS011;5087;42.662;23.466;2023-07-20T01:36:24;0.20;;;0.20;;
10096;SDS011;5087;42.662;23.466;2023-07-20T01:38:54;0.30;;;0.30;;
10096;SDS011;5087;42.662;23.466;2023-07-20T01:41:24;0.30;;;0.30;;
10096;SDS011;5087;42.662;23.466;2023-07-20T01:43:51;0.30;;;0.30;;
10096;SDS011;5087;42.662;23.466;2023-07-20T01:46:19;0.40;;;0.40;;
10096;SDS011;5087;42.662;23.466;2023-07-20T01:48:48;0.40;;;0.40;;
10096;SDS011;5087;42.662;23.466;2023-07-20T01:51:16;0.40;;;0.40;;
10096;SDS011;5087;42.662;23.466;2023-07-20T01:53:43;0.40;;;0.40;;
10096;SDS011;5087;42.662;23.466;2023-07-20T01:56:13;0.43;;;0.43;;
10096;SDS011;5087;42.662;23.466;2023-07-20T01:58:40;0.40;;;0.40;;
10096;SDS011;5087;42.662;23.466;2023-07-20T02:01:08;0.37;;;0.37;;
10096;SDS011;5087;42.662;23.466;2023-07-20T02:03:36;0.40;;;0.40;;
10096;SDS011;5087;42.662;23.466;2023-07-20T02:06:04;0.30;;;0.30;;
10096;SDS011;5087;42.662;23.466;2023-07-20T02:08:31;0.30;;;0.30;;
10096;SDS011;5087;42.662;23.466;2023-07-20T02:10:58;0.40;;;0.40;;
10096;SDS011;5087;42.662;23.466;2023-07-20T02:13:26;0.50;;;0.50;;
10096;SDS011;5087;42.662;23.466;2023-07-20T02:15:53;0.47;;;0.47;;
10096;SDS011;5087;42.662;23.466;2023-07-20T02:18:21;0.40;;;0.40;;
10096;SDS011;5087;42.662;23.466;2023-07-20T02:20:48;0.40;;;0.40;;
10096;SDS011;5087;42.662;23.466;2023-07-20T02:23:19;0.40;;;0.40;;
10096;SDS011;5087;42.662;23.466;2023-07-20T02:25:47;0.40;;;0.40;;
10096;SDS011;5087;42.662;23.466;2023-07-20T02:28:14;0.40;;;0.40;;
10096;SDS011;5087;42.662;23.466;2023-07-20T02:30:42;0.40;;;0.40;;
10096;SDS011;5087;42.662;23.466;2023-07-20T02:33:09;0.40;;;0.40;;
10096;SDS011;5087;42.662;23.466;2023-07-20T02:35:36;0.30;;;0.30;;
10096;SDS011;5087;42.662;23.466;2023-07-20T02:38:04;0.30;;;0.30;;
10096;SDS011;5087;42.662;23.466;2023-07-20T02:40:33;0.30;;;0.30;;
10096;SDS011;5087;42.662;23.466;2023-07-20T02:43:00;0.30;;;0.30;;
10096;SDS011;5087;42.662;23.466;2023-07-20T02:45:29;0.30;;;0.30;;
10096;SDS011;5087;42.662;23.466;2023-07-20T02:47:56;0.20;;;0.20;;
10096;SDS011;5087;42.662;23.466;2023-07-20T02:50:23;0.20;;;0.20;;
10096;SDS011;5087;42.662;23.466;2023-07-20T02:52:52;0.20;;;0.20;;
10096;SDS011;5087;42.662;23.466;2023-07-20T02:55:22;0.20;;;0.20;;
10096;SDS011;5087;42.662;23.466;2023-07-20T02:57:51;0.40;;;0.40;;
10096;SDS011;5087;42.662;23.466;2023-07-20T03:00:18;0.20;;;0.20;;
10096;SDS011;5087;42.662;23.466;2023-07-20T03:02:49;0.20;;;0.20;;
10096;SDS011;5087;42.662;23.466;2023-07-20T03:05:21;0.30;;;0.30;;
10096;SDS011;5087;42.662;23.466;2023-07-20T03:07:50;0.30;;;0.30;;
10096;SDS011;5087;42.662;23.466;2023-07-20T03:10:18;0.73;;;0.73;;
10096;SDS011;5087;42.662;23.466;2023-07-20T03:12:45;0.30;;;0.30;;
10096;SDS011;5087;42.662;23.466;2023-07-20T03:15:14;0.30;;;0.30;;
10096;SDS011;5087;42.662;23.466;2023-07-20T03:17:42;0.30;;;0.30;;
10096;SDS011;5087;42.662;23.466;2023-07-20T03:20:10;0.50;;;0.50;;
10096;SDS011;5087;42.662;23.466;2023-07-20T03:22:39;0.40;;;0.40;;
10096;SDS011;5087;42.662;23.466;2023-07-20T03:25:07;0.10;;;0.10;;
10096;SDS011;5087;42.662;23.466;2023-07-20T03:27:34;0.30;;;0.20;;
10096;SDS011;5087;42.662;23.466;2023-07-20T03:30:02;0.00;;;0.00;;
10096;SDS011;5087;42.662;23.466;2023-07-20T03:32:34;0.10;;;0.10;;
10096;SDS011;5087;42.662;23.466;2023-07-20T03:35:02;0.00;;;0.00;;
10096;SDS011;5087;42.662;23.466;2023-07-20T03:37:29;0.00;;;0.00;;
10096;SDS011;5087;42.662;23.466;2023-07-20T03:39:56;0.37;;;0.37;;
10096;SDS011;5087;42.662;23.466;2023-07-20T03:42:23;0.00;;;0.00;;
10096;SDS011;5087;42.662;23.466;2023-07-20T03:44:51;0.00;;;0.00;;
10096;SDS011;5087;42.662;23.466;2023-07-20T03:47:21;0.00;;;0.00;;
10096;SDS011;5087;42.662;23.466;2023-07-20T03:49:51;0.10;;;0.10;;
10096;SDS011;5087;42.662;23.466;2023-07-20T03:52:18;0.00;;;0.00;;
10096;SDS011;5087;42.662;23.466;2023-07-20T03:54:45;0.00;;;0.00;;
10096;SDS011;5087;42.662;23.466;2023-07-20T03:57:13;0.00;;;0.00;;
10096;SDS011;5087;42.662;23.466;2023-07-20T03:59:44;0.00;;;0.00;;
10096;SDS011;5087;42.662;23.466;2023-07-20T04:02:12;0.00;;;0.00;;
10096;SDS011;5087;42.662;23.466;2023-07-20T04:04:42;0.00;;;0.00;;
10096;SDS011;5087;42.662;23.466;2023-07-20T04:07:10;0.00;;;0.00;;
10096;SDS011;5087;42.662;23.466;2023-07-20T04:09:41;0.00;;;0.00;;
10096;SDS011;5087;42.662;23.466;2023-07-20T04:12:08;0.00;;;0.00;;
10096;SDS011;5087;42.662;23.466;2023-07-20T04:14:35;0.00;;;0.00;;
10096;SDS011;5087;42.662;23.466;2023-07-20T04:17:03;0.00;;;0.00;;
10096;SDS011;5087;42.662;23.466;2023-07-20T04:19:31;0.07;;;0.07;;
10096;SDS011;5087;42.662;23.466;2023-07-20T04:21:58;0.10;;;0.10;;
10096;SDS011;5087;42.662;23.466;2023-07-20T04:24:30;0.10;;;0.10;;
10096;SDS011;5087;42.662;23.466;2023-07-20T04:26:58;0.20;;;0.20;;
10096;SDS011;5087;42.662;23.466;2023-07-20T04:29:25;0.20;;;0.20;;
10096;SDS011;5087;42.662;23.466;2023-07-20T04:31:52;0.20;;;0.20;;
10096;SDS011;5087;42.662;23.466;2023-07-20T04:34:20;0.30;;;0.30;;
10096;SDS011;5087;42.662;23.466;2023-07-20T04:36:47;0.30;;;0.30;;
10096;SDS011;5087;42.662;23.466;2023-07-20T04:39:15;0.40;;;0.40;;
10096;SDS011;5087;42.662;23.466;2023-07-20T04:41:45;0.30;;;0.30;;
10096;SDS011;5087;42.662;23.466;2023-07-20T04:44:12;0.40;;;0.40;;
10096;SDS011;5087;42.662;23.466;2023-07-20T04:46:40;0.50;;;0.50;;
10096;SDS011;5087;42.662;23.466;2023-07-20T04:49:07;0.40;;;0.40;;
10096;SDS011;5087;42.662;23.466;2023-07-20T04:51:39;0.50;;;0.50;;
10096;SDS011;5087;42.662;23.466;2023-07-20T04:54:06;0.60;;;0.60;;
10096;SDS011;5087;42.662;23.466;2023-07-20T04:56:37;0.40;;;0.40;;
10096;SDS011;5087;42.662;23.466;2023-07-20T04:59:08;0.60;;;0.60;;
10096;SDS011;5087;42.662;23.466;2023-07-20T05:01:36;0.47;;;0.47;;
10096;SDS011;5087;42.662;23.466;2023-07-20T05:04:04;0.50;;;0.50;;
10096;SDS011;5087;42.662;23.466;2023-07-20T05:06:32;0.60;;;0.60;;
10096;SDS011;5087;42.662;23.466;2023-07-20T05:08:59;0.67;;;0.67;;
10096;SDS011;5087;42.662;23.466;2023-07-20T05:11:27;0.60;;;0.60;;
10096;SDS011;5087;42.662;23.466;2023-07-20T05:13:54;1.47;;;1.40;;
10096;SDS011;5087;42.662;23.466;2023-07-20T05:16:23;0.60;;;0.60;;
10096;SDS011;5087;42.662;23.466;2023-07-20T05:18:51;0.70;;;0.70;;
10096;SDS011;5087;42.662;23.466;2023-07-20T05:21:21;0.57;;;0.57;;
10096;SDS011;5087;42.662;23.466;2023-07-20T05:23:48;0.50;;;0.50;;
10096;SDS011;5087;42.662;23.466;2023-07-20T05:26:17;1.03;;;1.03;;
10096;SDS011;5087;42.662;23.466;2023-07-20T05:28:46;0.70;;;0.70;;
10096;SDS011;5087;42.662;23.466;2023-07-20T05:31:14;0.80;;;0.80;;
10096;SDS011;5087;42.662;23.466;2023-07-20T05:33:42;0.70;;;0.70;;
10096;SDS011;5087;42.662;23.466;2023-07-20T05:36:10;0.70;;;0.70;;
10096;SDS011;5087;42.662;23.466;2023-07-20T05:38:37;0.70;;;0.70;;
10096;SDS011;5087;42.662;23.466;2023-07-20T05:41:04;0.70;;;0.70;;
10096;SDS011;5087;42.662;23.466;2023-07-20T05:43:35;0.60;;;0.60;;
10096;SDS011;5087;42.662;23.466;2023-07-20T05:46:02;0.80;;;0.80;;
10096;SDS011;5087;42.662;23.466;2023-07-20T05:48:30;0.60;;;0.60;;
10096;SDS011;5087;42.662;23.466;2023-07-20T05:50:59;0.60;;;0.60;;
10096;SDS011;5087;42.662;23.466;2023-07-20T05:53:27;0.60;;;0.60;;
10096;SDS011;5087;42.662;23.466;2023-07-20T05:55:54;0.50;;;0.50;;
10096;SDS011;5087;42.662;23.466;2023-07-20T05:58:21;0.70;;;0.70;;
10096;SDS011;5087;42.662;23.466;2023-07-20T06:00:53;0.50;;;0.50;;
10096;SDS011;5087;42.662;23.466;2023-07-20T06:03:20;0.60;;;0.60;;
10096;SDS011;5087;42.662;23.466;2023-07-20T06:05:47;0.60;;;0.60;;
10096;SDS011;5087;42.662;23.466;2023-07-20T06:08:16;0.60;;;0.60;;
10096;SDS011;5087;42.662;23.466;2023-07-20T06:10:44;0.70;;;0.70;;
10096;SDS011;5087;42.662;23.466;2023-07-20T06:13:11;0.70;;;0.70;;
10096;SDS011;5087;42.662;23.466;2023-07-20T06:15:38;0.60;;;0.60;;
10096;SDS011;5087;42.662;23.466;2023-07-20T06:18:06;0.60;;;0.60;;
10096;SDS011;5087;42.662;23.466;2023-07-20T06:20:33;0.63;;;0.63;;
10096;SDS011;5087;42.662;23.466;2023-07-20T06:23:00;0.70;;;0.70;;
10096;SDS011;5087;42.662;23.466;2023-07-20T06:25:29;0.60;;;0.60;;
10096;SDS011;5087;42.662;23.466;2023-07-20T06:27:56;0.60;;;0.60;;
10096;SDS011;5087;42.662;23.466;2023-07-20T06:30:24;0.70;;;0.70;;
10096;SDS011;5087;42.662;23.466;2023-07-20T06:32:51;0.70;;;0.70;;
10096;SDS011;5087;42.662;23.466;2023-07-20T06:35:18;0.60;;;0.60;;
10096;SDS011;5087;42.662;23.466;2023-07-20T06:37:48;0.60;;;0.60;;
10096;SDS011;5087;42.662;23.466;2023-07-20T06:40:15;0.60;;;0.60;;
10096;SDS011;5087;42.662;23.466;2023-07-20T06:42:44;0.70;;;0.70;;
10096;SDS011;5087;42.662;23.466;2023-07-20T06:45:11;0.70;;;0.70;;
10096;SDS011;5087;42.662;23.466;2023-07-20T06:47:39;0.90;;;0.90;;
10096;SDS011;5087;42.662;23.466;2023-07-20T06:50:06;0.40;;;0.40;;
10096;SDS011;5087;42.662;23.466;2023-07-20T06:52:34;0.50;;;0.50;;
10096;SDS011;5087;42.662;23.466;2023-07-20T06:55:02;0.70;;;0.70;;
10096;SDS011;5087;42.662;23.466;2023-07-20T06:57:29;0.50;;;0.50;;
10096;SDS011;5087;42.662;23.466;2023-07-20T06:59:57;0.50;;;0.50;;
10096;SDS011;5087;42.662;23.466;2023-07-20T07:02:25;0.60;;;0.60;;
10096;SDS011;5087;42.662;23.466;2023-07-20T07:04:52;0.70;;;0.70;;
10096;SDS011;5087;42.662;23.466;2023-07-20T07:07:20;0.90;;;0.90;;
10096;SDS011;5087;42.662;23.466;2023-07-20T07:09:47;0.77;;;0.77;;
10096;SDS011;5087;42.662;23.466;2023-07-20T07:12:14;0.70;;;0.70;;
10096;SDS011;5087;42.662;23.466;2023-07-20T07:14:41;0.50;;;0.50;;
10096;SDS011;5087;42.662;23.466;2023-07-20T07:17:10;0.60;;;0.60;;
10096;SDS011;5087;42.662;23.466;2023-07-20T07:19:37;0.47;;;0.47;;
10096;SDS011;5087;42.662;23.466;2023-07-20T07:22:06;0.50;;;0.50;;
10096;SDS011;5087;42.662;23.466;2023-07-20T07:24:33;0.60;;;0.60;;
10096;SDS011;5087;42.662;23.466;2023-07-20T07:27:00;0.80;;;0.80;;
10096;SDS011;5087;42.662;23.466;2023-07-20T07:29:27;0.60;;;0.60;;
10096;SDS011;5087;42.662;23.466;2023-07-20T07:31:55;0.50;;;0.50;;
10096;SDS011;5087;42.662;23.466;2023-07-20T07:34:24;0.50;;;0.50;;
10096;SDS011;5087;42.662;23.466;2023-07-20T07:36:51;0.50;;;0.50;;
10096;SDS011;5087;42.662;23.466;2023-07-20T07:39:22;0.50;;;0.50;;
10096;SDS011;5087;42.662;23.466;2023-07-20T07:41:49;0.70;;;0.70;;
10096;SDS011;5087;42.662;23.466;2023-07-20T07:44:17;0.60;;;0.60;;
10096;SDS011;5087;42.662;23.466;2023-07-20T07:46:47;0.47;;;0.47;;
10096;SDS011;5087;42.662;23.466;2023-07-20T07:49:14;0.30;;;0.30;;
10096;SDS011;5087;42.662;23.466;2023-07-20T07:51:43;0.93;;;0.80;;
10096;SDS011;5087;42.662;23.466;2023-07-20T07:54:10;0.73;;;0.73;;
10096;SDS011;5087;42.662;23.466;2023-07-20T07:56:37;0.30;;;0.30;;
10096;SDS011;5087;42.662;23.466;2023-07-20T07:59:04;0.37;;;0.37;;
10096;SDS011;5087;42.662;23.466;2023-07-20T08:01:32;0.30;;;0.30;;
10096;SDS011;5087;42.662;23.466;2023-07-20T08:04:00;0.40;;;0.40;;
10096;SDS011;5087;42.662;23.466;2023-07-20T08:06:27;0.40;;;0.40;;
10096;SDS011;5087;42.662;23.466;2023-07-20T08:08:55;0.30;;;0.30;;
10096;SDS011;5087;42.662;23.466;2023-07-20T08:11:23;0.30;;;0.30;;
10096;SDS011;5087;42.662;23.466;2023-07-20T08:13:50;0.30;;;0.30;;
10096;SDS011;5087;42.662;23.466;2023-07-20T08:16:17;0.30;;;0.30;;
10096;SDS011;5087;42.662;23.466;2023-07-20T08:18:47;0.30;;;0.30;;
10096;SDS011;5087;42.662;23.466;2023-07-20T08:21:14;0.30;;;0.30;;
10096;SDS011;5087;42.662;23.466;2023-07-20T08:23:42;0.43;;;0.43;;
10096;SDS011;5087;42.662;23.466;2023-07-20T08:26:10;0.20;;;0.20;;
10096;SDS011;5087;42.662;23.466;2023-07-20T08:28:38;0.40;;;0.40;;
10096;SDS011;5087;42.662;23.466;2023-07-20T08:31:05;0.23;;;0.23;;
10096;SDS011;5087;42.662;23.466;2023-07-20T08:33:33;0.40;;;0.40;;
10096;SDS011;5087;42.662;23.466;2023-07-20T08:36:00;0.30;;;0.30;;
10096;SDS011;5087;42.662;23.466;2023-07-20T08:38:29;0.40;;;0.40;;
10096;SDS011;5087;42.662;23.466;2023-07-20T08:40:57;0.30;;;0.30;;
10096;SDS011;5087;42.662;23.466;2023-07-20T08:43:27;0.30;;;0.30;;
10096;SDS011;5087;42.662;23.466;2023-07-20T08:45:55;0.30;;;0.30;;
10096;SDS011;5087;42.662;23.466;2023-07-20T08:48:22;0.23;;;0.23;;
10096;SDS011;5087;42.662;23.466;2023-07-20T08:50:56;0.33;;;0.33;;
10096;SDS011;5087;42.662;23.466;2023-07-20T08:53:26;0.30;;;0.30;;
10096;SDS011;5087;42.662;23.466;2023-07-20T08:55:54;0.30;;;0.30;;
10096;SDS011;5087;42.662;23.466;2023-07-20T08:58:22;0.20;;;0.20;;
10096;SDS011;5087;42.662;23.466;2023-07-20T09:00:53;0.20;;;0.20;;
10096;SDS011;5087;42.662;23.466;2023-07-20T09:03:21;0.20;;;0.20;;
10096;SDS011;5087;42.662;23.466;2023-07-20T09:05:48;0.10;;;0.10;;
10096;SDS011;5087;42.662;23.466;2023-07-20T09:08:16;0.10;;;0.10;;
10096;SDS011;5087;42.662;23.466;2023-07-20T09:10:43;0.40;;;0.40;;
10096;SDS011;5087;42.662;23.466;2023-07-20T09:13:13;1.30;;;0.50;;
10096;SDS011;5087;42.662;23.466;2023-07-20T09:15:45;0.10;;;0.10;;
10096;SDS011;5087;42.662;23.466;2023-07-20T09:18:16;0.10;;;0.10;;
10096;SDS011;5087;42.662;23.466;2023-07-20T09:20:50;0.10;;;0.10;;
10096;SDS011;5087;42.662;23.466;2023-07-20T09:23:18;0.10;;;0.10;;
10096;SDS011;5087;42.662;23.466;2023-07-20T09:25:46;0.20;;;0.20;;
10096;SDS011;5087;42.662;23.466;2023-07-20T09:28:16;0.30;;;0.30;;
10096;SDS011;5087;42.662;23.466;2023-07-20T09:30:44;0.10;;;0.10;;
10096;SDS011;5087;42.662;23.466;2023-07-20T09:33:20;0.40;;;0.40;;
10096;SDS011;5087;42.662;23.466;2023-07-20T09:35:48;0.10;;;0.10;;
10096;SDS011;5087;42.662;23.466;2023-07-20T09:38:15;0.20;;;0.20;;
10096;SDS011;5087;42.662;23.466;2023-07-20T09:40:43;0.10;;;0.10;;
10096;SDS011;5087;42.662;23.466;2023-07-20T09:43:12;0.10;;;0.10;;
10096;SDS011;5087;42.662;23.466;2023-07-20T09:45:40;0.10;;;0.10;;
10096;SDS011;5087;42.662;23.466;2023-07-20T09:48:08;0.10;;;0.10;;
10096;SDS011;5087;42.662;23.466;2023-07-20T09:50:40;0.10;;;0.10;;
10096;SDS011;5087;42.662;23.466;2023-07-20T09:53:09;0.33;;;0.33;;
10096;SDS011;5087;42.662;23.466;2023-07-20T09:55:40;0.10;;;0.10;;
10096;SDS011;5087;42.662;23.466;2023-07-20T09:58:09;0.10;;;0.10;;
10096;SDS011;5087;42.662;23.466;2023-07-20T10:00:37;0.30;;;0.30;;
10096;SDS011;5087;42.662;23.466;2023-07-20T10:03:05;0.10;;;0.10;;
10096;SDS011;5087;42.662;23.466;2023-07-20T10:05:38;0.10;;;0.10;;
10096;SDS011;5087;42.662;23.466;2023-07-20T10:08:13;0.10;;;0.10;;
10096;SDS011;5087;42.662;23.466;2023-07-20T10:10:44;0.10;;;0.10;;
10096;SDS011;5087;42.662;23.466;2023-07-20T10:13:13;0.10;;;0.10;;
10096;SDS011;5087;42.662;23.466;2023-07-20T10:15:53;0.10;;;0.10;;
10096;SDS011;5087;42.662;23.466;2023-07-20T10:18:25;0.23;;;0.23;;
10096;SDS011;5087;42.662;23.466;2023-07-20T10:20:59;0.10;;;0.10;;
10096;SDS011;5087;42.662;23.466;2023-07-20T10:25:55;0.67;;;0.67;;
10096;SDS011;5087;42.662;23.466;2023-07-20T10:28:32;0.10;;;0.10;;
10096;SDS011;5087;42.662;23.466;2023-07-20T10:31:09;1.17;;;0.93;;
10096;SDS011;5087;42.662;23.466;2023-07-20T10:33:55;0.10;;;0.10;;
10096;SDS011;5087;42.662;23.466;2023-07-20T10:36:28;0.10;;;0.10;;
10096;SDS011;5087;42.662;23.466;2023-07-20T10:38:55;0.10;;;0.10;;
10096;SDS011;5087;42.662;23.466;2023-07-20T10:41:27;0.10;;;0.10;;
10096;SDS011;5087;42.662;23.466;2023-07-20T10:44:01;0.50;;;0.50;;
10096;SDS011;5087;42.662;23.466;2023-07-20T10:46:41;0.10;;;0.10;;
10096;SDS011;5087;42.662;23.466;2023-07-20T10:49:10;0.20;;;0.20;;
10096;SDS011;5087;42.662;23.466;2023-07-20T10:51:41;0.10;;;0.10;;
10096;SDS011;5087;42.662;23.466;2023-07-20T10:54:09;0.10;;;0.10;;
10096;SDS011;5087;42.662;23.466;2023-07-20T10:59:50;0.10;;;0.10;;
10096;SDS011;5087;42.662;23.466;2023-07-20T11:02:18;0.60;;;0.60;;
10096;SDS011;5087;42.662;23.466;2023-07-20T11:04:46;0.10;;;0.10;;
10096;SDS011;5087;42.662;23.466;2023-07-20T11:07:35;0.10;;;0.10;;
10096;SDS011;5087;42.662;23.466;2023-07-20T11:10:12;0.80;;;0.80;;
10096;SDS011;5087;42.662;23.466;2023-07-20T11:12:40;0.20;;;0.20;;
10096;SDS011;5087;42.662;23.466;2023-07-20T11:15:08;0.10;;;0.10;;
10096;SDS011;5087;42.662;23.466;2023-07-20T11:17:35;0.10;;;0.10;;
10096;SDS011;5087;42.662;23.466;2023-07-20T11:20:04;0.23;;;0.23;;
10096;SDS011;5087;42.662;23.466;2023-07-20T11:22:34;0.10;;;0.10;;
10096;SDS011;5087;42.662;23.466;2023-07-20T11:25:03;0.10;;;0.10;;
10096;SDS011;5087;42.662;23.466;2023-07-20T11:27:30;0.10;;;0.10;;
10096;SDS011;5087;42.662;23.466;2023-07-20T11:29:57;0.10;;;0.10;;
10096;SDS011;5087;42.662;23.466;2023-07-20T11:32:24;0.10;;;0.10;;
10096;SDS011;5087;42.662;23.466;2023-07-20T11:34:52;0.10;;;0.10;;
10096;SDS011;5087;42.662;23.466;2023-07-20T11:37:21;0.10;;;0.10;;
10096;SDS011;5087;42.662;23.466;2023-07-20T11:39:51;0.10;;;0.10;;
10096;SDS011;5087;42.662;23.466;2023-07-20T11:42:22;0.20;;;0.20;;
10096;SDS011;5087;42.662;23.466;2023-07-20T11:44:51;0.10;;;0.10;;
10096;SDS011;5087;42.662;23.466;2023-07-20T11:47:18;0.10;;;0.10;;
10096;SDS011;5087;42.662;23.466;2023-07-20T11:49:46;0.10;;;0.10;;
10096;SDS011;5087;42.662;23.466;2023-07-20T11:52:18;0.10;;;0.10;;
10096;SDS011;5087;42.662;23.466;2023-07-20T11:54:46;0.20;;;0.20;;
10096;SDS011;5087;42.662;23.466;2023-07-20T11:57:18;0.10;;;0.10;;
10096;SDS011;5087;42.662;23.466;2023-07-20T11:59:54;0.30;;;0.30;;
10096;SDS011;5087;42.662;23.466;2023-07-20T12:02:22;0.20;;;0.20;;
10096;SDS011;5087;42.662;23.466;2023-07-20T12:04:50;0.10;;;0.10;;
10096;SDS011;5087;42.662;23.466;2023-07-20T12:07:18;0.10;;;0.10;;
10096;SDS011;5087;42.662;23.466;2023-07-20T12:10:02;0.22;;;0.22;;
10096;SDS011;5087;42.662;23.466;2023-07-20T12:12:32;0.20;;;0.20;;
10096;SDS011;5087;42.662;23.466;2023-07-20T12:15:13;0.20;;;0.20;;
10096;SDS011;5087;42.662;23.466;2023-07-20T12:17:44;0.10;;;0.10;;
10096;SDS011;5087;42.662;23.466;2023-07-20T12:20:11;0.10;;;0.10;;
10096;SDS011;5087;42.662;23.466;2023-07-20T12:22:39;0.30;;;0.30;;
10096;SDS011;5087;42.662;23.466;2023-07-20T12:25:08;0.10;;;0.10;;
10096;SDS011;5087;42.662;23.466;2023-07-20T12:27:37;0.10;;;0.10;;
10096;SDS011;5087;42.662;23.466;2023-07-20T12:30:05;0.20;;;0.20;;
10096;SDS011;5087;42.662;23.466;2023-07-20T12:32:33;0.20;;;0.20;;
10096;SDS011;5087;42.662;23.466;2023-07-20T12:35:00;0.17;;;0.17;;
10096;SDS011;5087;42.662;23.466;2023-07-20T12:37:27;0.10;;;0.10;;
10096;SDS011;5087;42.662;23.466;2023-07-20T12:39:55;0.10;;;0.10;;
10096;SDS011;5087;42.662;23.466;2023-07-20T12:42:22;0.10;;;0.10;;
10096;SDS011;5087;42.662;23.466;2023-07-20T12:44:53;0.30;;;0.30;;
10096;SDS011;5087;42.662;23.466;2023-07-20T12:47:21;0.10;;;0.10;;
10096;SDS011;5087;42.662;23.466;2023-07-20T12:49:48;0.10;;;0.10;;
10096;SDS011;5087;42.662;23.466;2023-07-20T12:52:15;0.10;;;0.10;;
10096;SDS011;5087;42.662;23.466;2023-07-20T12:54:42;0.20;;;0.20;;
10096;SDS011;5087;42.662;23.466;2023-07-20T12:57:10;0.10;;;0.10;;
10096;SDS011;5087;42.662;23.466;2023-07-20T12:59:37;0.20;;;0.20;;
10096;SDS011;5087;42.662;23.466;2023-07-20T13:02:06;0.10;;;0.10;;
10096;SDS011;5087;42.662;23.466;2023-07-20T13:04:33;0.10;;;0.10;;
10096;SDS011;5087;42.662;23.466;2023-07-20T13:07:00;0.77;;;0.77;;
10096;SDS011;5087;42.662;23.466;2023-07-20T13:09:27;0.20;;;0.20;;
10096;SDS011;5087;42.662;23.466;2023-07-20T13:11:54;0.10;;;0.10;;
10096;SDS011;5087;42.662;23.466;2023-07-20T13:14:22;0.30;;;0.30;;
10096;SDS011;5087;42.662;23.466;2023-07-20T13:16:49;0.17;;;0.17;;
10096;SDS011;5087;42.662;23.466;2023-07-20T13:19:18;0.10;;;0.10;;
10096;SDS011;5087;42.662;23.466;2023-07-20T13:21:47;0.10;;;0.10;;
10096;SDS011;5087;42.662;23.466;2023-07-20T13:24:14;0.10;;;0.10;;
10096;SDS011;5087;42.662;23.466;2023-07-20T13:26:42;0.20;;;0.20;;
10096;SDS011;5087;42.662;23.466;2023-07-20T13:29:09;0.20;;;0.20;;
10096;SDS011;5087;42.662;23.466;2023-07-20T13:31:36;0.00;;;0.00;;
10096;SDS011;5087;42.662;23.466;2023-07-20T13:34:03;0.20;;;0.20;;
10096;SDS011;5087;42.662;23.466;2023-07-20T13:36:32;0.10;;;0.10;;
10096;SDS011;5087;42.662;23.466;2023-07-20T13:39:00;0.10;;;0.10;;
10096;SDS011;5087;42.662;23.466;2023-07-20T13:41:27;0.10;;;0.10;;
10096;SDS011;5087;42.662;23.466;2023-07-20T13:43:54;0.10;;;0.10;;
10096;SDS011;5087;42.662;23.466;2023-07-20T13:46:21;0.10;;;0.10;;
10096;SDS011;5087;42.662;23.466;2023-07-20T13:48:48;0.00;;;0.00;;
10096;SDS011;5087;42.662;23.466;2023-07-20T13:51:16;0.10;;;0.10;;
10096;SDS011;5087;42.662;23.466;2023-07-20T13:53:47;0.10;;;0.10;;
10096;SDS011;5087;42.662;23.466;2023-07-20T13:56:15;0.00;;;0.00;;
10096;SDS011;5087;42.662;23.466;2023-07-20T13:58:42;0.20;;;0.20;;
10096;SDS011;5087;42.662;23.466;2023-07-20T14:01:12;0.10;;;0.10;;
10096;SDS011;5087;42.662;23.466;2023-07-20T14:03:39;0.10;;;0.10;;
10096;SDS011;5087;42.662;23.466;2023-07-20T14:06:06;0.10;;;0.10;;
10096;SDS011;5087;42.662;23.466;2023-07-20T14:08:33;0.10;;;0.10;;
10096;SDS011;5087;42.662;23.466;2023-07-20T14:11:02;0.10;;;0.10;;
10096;SDS011;5087;42.662;23.466;2023-07-20T14:13:29;0.00;;;0.00;;
10096;SDS011;5087;42.662;23.466;2023-07-20T14:15:56;1.70;;;0.40;;
10096;SDS011;5087;42.662;23.466;2023-07-20T14:18:23;0.00;;;0.00;;
10096;SDS011;5087;42.662;23.466;2023-07-20T14:20:50;0.27;;;0.27;;
10096;SDS011;5087;42.662;23.466;2023-07-20T14:23:17;0.10;;;0.10;;
10096;SDS011;5087;42.662;23.466;2023-07-20T14:25:46;0.00;;;0.00;;
10096;SDS011;5087;42.662;23.466;2023-07-20T14:28:14;0.10;;;0.10;;
10096;SDS011;5087;42.662;23.466;2023-07-20T14:30:42;0.00;;;0.00;;
10096;SDS011;5087;42.662;23.466;2023-07-20T14:33:09;0.10;;;0.10;;
10096;SDS011;5087;42.662;23.466;2023-07-20T14:35:36;0.17;;;0.17;;
10096;SDS011;5087;42.662;23.466;2023-07-20T14:38:04;0.30;;;0.30;;
10096;SDS011;5087;42.662;23.466;2023-07-20T14:40:31;0.10;;;0.10;;
10096;SDS011;5087;42.662;23.466;2023-07-20T14:42:58;0.10;;;0.10;;
10096;SDS011;5087;42.662;23.466;2023-07-20T14:45:28;0.53;;;0.53;;
10096;SDS011;5087;42.662;23.466;2023-07-20T14:47:55;0.10;;;0.10;;
10096;SDS011;5087;42.662;23.466;2023-07-20T14:50:23;0.50;;;0.50;;
10096;SDS011;5087;42.662;23.466;2023-07-20T14:52:50;0.10;;;0.10;;
10096;SDS011;5087;42.662;23.466;2023-07-20T14:55:17;0.10;;;0.10;;
10096;SDS011;5087;42.662;23.466;2023-07-20T14:57:47;0.10;;;0.10;;
10096;SDS011;5087;42.662;23.466;2023-07-20T15:00:14;0.00;;;0.00;;
10096;SDS011;5087;42.662;23.466;2023-07-20T15:02:43;0.10;;;0.10;;